sensor_id;sensor_type;location;lat;lon;timestamp;P1;durP1;ratioP1;P2;durP2;ratioP2
70337;SDS011;57757;53.198;19.646;2022-09-12T00:01:11;8.10;;;2.60;;
70337;SDS011;57757;53.198;19.646;2022-09-12T00:03:42;8.90;;;2.90;;
70337;SDS011;57757;53.198;19.646;2022-09-12T00:06:12;9.10;;;2.40;;
70337;SDS011;57757;53.198;19.646;2022-09-12T00:08:50;13.90;;;3.60;;
70337;SDS011;57757;53.198;19.646;2022-09-12T00:11:20;8.90;;;2.70;;
70337;SDS011;57757;53.198;19.646;2022-09-12T00:13:47;10.20;;;3.00;;
70337;SDS011;57757;53.198;19.646;2022-09-12T00:16:19;12.10;;;3.70;;
70337;SDS011;57757;53.198;19.646;2022-09-12T00:18:49;10.30;;;3.20;;
70337;SDS011;57757;53.198;19.646;2022-09-12T00:21:17;7.70;;;2.60;;
70337;SDS011;57757;53.198;19.646;2022-09-12T00:23:46;8.40;;;2.60;;
70337;SDS011;57757;53.198;19.646;2022-09-12T00:26:14;9.00;;;2.70;;
70337;SDS011;57757;53.198;19.646;2022-09-12T00:28:43;12.40;;;3.90;;
70337;SDS011;57757;53.198;19.646;2022-09-12T00:31:13;10.80;;;3.70;;
70337;SDS011;57757;53.198;19.646;2022-09-12T00:33:43;11.10;;;3.10;;
70337;SDS011;57757;53.198;19.646;2022-09-12T00:36:21;19.20;;;7.80;;
70337;SDS011;57757;53.198;19.646;2022-09-12T00:38:51;10.60;;;5.30;;
70337;SDS011;57757;53.198;19.646;2022-09-12T00:41:26;13.10;;;6.40;;
70337;SDS011;57757;53.198;19.646;2022-09-12T00:44:00;13.40;;;5.00;;
70337;SDS011;57757;53.198;19.646;2022-09-12T00:52:00;12.40;;;3.80;;
70337;SDS011;57757;53.198;19.646;2022-09-12T00:54:35;13.40;;;4.50;;
70337;SDS011;57757;53.198;19.646;2022-09-12T00:57:07;11.70;;;4.30;;
70337;SDS011;57757;53.198;19.646;2022-09-12T00:59:39;13.20;;;4.30;;
70337;SDS011;57757;53.198;19.646;2022-09-12T01:02:12;10.70;;;4.50;;
70337;SDS011;57757;53.198;19.646;2022-09-12T01:04:41;18.90;;;10.30;;
70337;SDS011;57757;53.198;19.646;2022-09-12T01:07:10;10.60;;;3.50;;
70337;SDS011;57757;53.198;19.646;2022-09-12T01:09:41;9.70;;;2.60;;
70337;SDS011;57757;53.198;19.646;2022-09-12T01:12:12;10.80;;;2.90;;
70337;SDS011;57757;53.198;19.646;2022-09-12T01:14:41;9.60;;;3.00;;
70337;SDS011;57757;53.198;19.646;2022-09-12T01:17:12;13.10;;;4.20;;
70337;SDS011;57757;53.198;19.646;2022-09-12T01:22:52;13.70;;;3.60;;
70337;SDS011;57757;53.198;19.646;2022-09-12T01:25:47;9.90;;;3.40;;
70337;SDS011;57757;53.198;19.646;2022-09-12T01:31:40;8.20;;;3.60;;
70337;SDS011;57757;53.198;19.646;2022-09-12T01:34:45;9.80;;;3.30;;
70337;SDS011;57757;53.198;19.646;2022-09-12T01:37:54;10.40;;;3.20;;
70337;SDS011;57757;53.198;19.646;2022-09-12T01:40:27;12.00;;;3.50;;
70337;SDS011;57757;53.198;19.646;2022-09-12T01:43:03;9.70;;;2.70;;
70337;SDS011;57757;53.198;19.646;2022-09-12T01:48:51;8.50;;;2.40;;
70337;SDS011;57757;53.198;19.646;2022-09-12T01:51:38;8.70;;;2.60;;
70337;SDS011;57757;53.198;19.646;2022-09-12T01:57:06;11.20;;;2.40;;
70337;SDS011;57757;53.198;19.646;2022-09-12T01:59:42;7.60;;;2.90;;
70337;SDS011;57757;53.198;19.646;2022-09-12T02:02:15;9.10;;;2.50;;
70337;SDS011;57757;53.198;19.646;2022-09-12T02:08:01;12.70;;;3.00;;
70337;SDS011;57757;53.198;19.646;2022-09-12T02:10:41;10.70;;;2.90;;
70337;SDS011;57757;53.198;19.646;2022-09-12T02:15:59;8.80;;;2.70;;
70337;SDS011;57757;53.198;19.646;2022-09-12T02:18:32;10.80;;;2.60;;
70337;SDS011;57757;53.198;19.646;2022-09-12T02:21:01;7.50;;;2.20;;
70337;SDS011;57757;53.198;19.646;2022-09-12T02:23:32;8.20;;;2.60;;
70337;SDS011;57757;53.198;19.646;2022-09-12T02:26:10;11.20;;;2.60;;
70337;SDS011;57757;53.198;19.646;2022-09-12T02:28:45;8.50;;;2.60;;
70337;SDS011;57757;53.198;19.646;2022-09-12T02:31:21;9.80;;;2.70;;
70337;SDS011;57757;53.198;19.646;2022-09-12T02:39:54;9.50;;;2.20;;
70337;SDS011;57757;53.198;19.646;2022-09-12T02:42:23;11.60;;;2.60;;
70337;SDS011;57757;53.198;19.646;2022-09-12T02:44:51;8.30;;;3.00;;
70337;SDS011;57757;53.198;19.646;2022-09-12T02:50:08;9.60;;;2.80;;
70337;SDS011;57757;53.198;19.646;2022-09-12T02:52:36;7.30;;;2.30;;
70337;SDS011;57757;53.198;19.646;2022-09-12T02:55:06;8.50;;;2.10;;
70337;SDS011;57757;53.198;19.646;2022-09-12T02:57:37;7.30;;;2.40;;
70337;SDS011;57757;53.198;19.646;2022-09-12T03:00:05;7.40;;;2.00;;
70337;SDS011;57757;53.198;19.646;2022-09-12T03:05:18;8.20;;;2.70;;
70337;SDS011;57757;53.198;19.646;2022-09-12T03:19:30;9.70;;;2.60;;
70337;SDS011;57757;53.198;19.646;2022-09-12T03:22:22;9.10;;;2.60;;
70337;SDS011;57757;53.198;19.646;2022-09-12T03:27:52;10.40;;;3.10;;
70337;SDS011;57757;53.198;19.646;2022-09-12T03:30:39;8.90;;;2.60;;
70337;SDS011;57757;53.198;19.646;2022-09-12T03:33:12;7.50;;;2.40;;
70337;SDS011;57757;53.198;19.646;2022-09-12T03:35:42;8.60;;;2.40;;
70337;SDS011;57757;53.198;19.646;2022-09-12T03:38:10;10.60;;;2.70;;
70337;SDS011;57757;53.198;19.646;2022-09-12T03:40:37;10.10;;;2.80;;
70337;SDS011;57757;53.198;19.646;2022-09-12T03:43:06;10.20;;;2.70;;
70337;SDS011;57757;53.198;19.646;2022-09-12T03:45:35;9.80;;;2.60;;
70337;SDS011;57757;53.198;19.646;2022-09-12T03:48:03;10.00;;;2.80;;
70337;SDS011;57757;53.198;19.646;2022-09-12T03:50:32;7.60;;;2.50;;
70337;SDS011;57757;53.198;19.646;2022-09-12T03:53:00;8.90;;;2.90;;
70337;SDS011;57757;53.198;19.646;2022-09-12T03:55:28;7.90;;;2.10;;
70337;SDS011;57757;53.198;19.646;2022-09-12T03:57:57;8.40;;;2.20;;
70337;SDS011;57757;53.198;19.646;2022-09-12T04:00:24;7.70;;;2.10;;
70337;SDS011;57757;53.198;19.646;2022-09-12T04:02:52;8.00;;;2.40;;
70337;SDS011;57757;53.198;19.646;2022-09-12T04:05:22;8.70;;;2.30;;
70337;SDS011;57757;53.198;19.646;2022-09-12T04:07:51;8.00;;;2.40;;
70337;SDS011;57757;53.198;19.646;2022-09-12T04:10:19;9.40;;;3.30;;
70337;SDS011;57757;53.198;19.646;2022-09-12T04:12:46;11.30;;;3.50;;
70337;SDS011;57757;53.198;19.646;2022-09-12T04:15:14;10.20;;;3.50;;
70337;SDS011;57757;53.198;19.646;2022-09-12T04:17:41;11.90;;;3.40;;
70337;SDS011;57757;53.198;19.646;2022-09-12T04:20:09;11.30;;;3.50;;
70337;SDS011;57757;53.198;19.646;2022-09-12T04:22:37;11.20;;;3.20;;
70337;SDS011;57757;53.198;19.646;2022-09-12T04:25:05;11.90;;;2.70;;
70337;SDS011;57757;53.198;19.646;2022-09-12T04:27:33;8.90;;;2.10;;
70337;SDS011;57757;53.198;19.646;2022-09-12T04:30:00;12.20;;;3.90;;
70337;SDS011;57757;53.198;19.646;2022-09-12T04:32:29;8.90;;;3.40;;
70337;SDS011;57757;53.198;19.646;2022-09-12T04:34:57;10.70;;;3.70;;
70337;SDS011;57757;53.198;19.646;2022-09-12T04:37:25;7.40;;;2.90;;
70337;SDS011;57757;53.198;19.646;2022-09-12T04:39:52;10.80;;;4.20;;
70337;SDS011;57757;53.198;19.646;2022-09-12T04:42:24;10.30;;;3.10;;
70337;SDS011;57757;53.198;19.646;2022-09-12T04:44:51;9.70;;;4.90;;
70337;SDS011;57757;53.198;19.646;2022-09-12T04:47:19;9.80;;;3.90;;
70337;SDS011;57757;53.198;19.646;2022-09-12T04:49:47;8.10;;;2.50;;
70337;SDS011;57757;53.198;19.646;2022-09-12T04:52:17;8.70;;;2.70;;
70337;SDS011;57757;53.198;19.646;2022-09-12T04:54:44;9.90;;;3.40;;
70337;SDS011;57757;53.198;19.646;2022-09-12T04:57:12;9.30;;;4.00;;
70337;SDS011;57757;53.198;19.646;2022-09-12T04:59:40;10.60;;;3.50;;
70337;SDS011;57757;53.198;19.646;2022-09-12T05:02:07;14.80;;;4.20;;
70337;SDS011;57757;53.198;19.646;2022-09-12T05:04:34;12.90;;;4.80;;
70337;SDS011;57757;53.198;19.646;2022-09-12T05:07:02;12.10;;;3.40;;
70337;SDS011;57757;53.198;19.646;2022-09-12T05:09:30;10.00;;;3.10;;
70337;SDS011;57757;53.198;19.646;2022-09-12T05:11:58;10.40;;;3.80;;
70337;SDS011;57757;53.198;19.646;2022-09-12T05:14:32;9.60;;;3.40;;
70337;SDS011;57757;53.198;19.646;2022-09-12T05:17:00;15.80;;;5.20;;
70337;SDS011;57757;53.198;19.646;2022-09-12T05:19:29;14.40;;;4.70;;
70337;SDS011;57757;53.198;19.646;2022-09-12T05:21:58;25.70;;;18.30;;
70337;SDS011;57757;53.198;19.646;2022-09-12T05:24:25;21.40;;;12.70;;
70337;SDS011;57757;53.198;19.646;2022-09-12T05:26:53;20.90;;;14.80;;
70337;SDS011;57757;53.198;19.646;2022-09-12T05:29:20;13.10;;;6.40;;
70337;SDS011;57757;53.198;19.646;2022-09-12T05:31:48;13.40;;;8.00;;
70337;SDS011;57757;53.198;19.646;2022-09-12T05:34:18;12.00;;;4.00;;
70337;SDS011;57757;53.198;19.646;2022-09-12T05:36:47;9.40;;;3.20;;
70337;SDS011;57757;53.198;19.646;2022-09-12T05:39:15;10.00;;;4.40;;
70337;SDS011;57757;53.198;19.646;2022-09-12T05:41:52;8.40;;;2.90;;
70337;SDS011;57757;53.198;19.646;2022-09-12T05:44:20;11.50;;;2.80;;
70337;SDS011;57757;53.198;19.646;2022-09-12T05:46:48;8.20;;;2.70;;
70337;SDS011;57757;53.198;19.646;2022-09-12T05:49:17;11.20;;;3.10;;
70337;SDS011;57757;53.198;19.646;2022-09-12T05:51:45;9.10;;;2.20;;
70337;SDS011;57757;53.198;19.646;2022-09-12T05:54:14;9.70;;;3.00;;
70337;SDS011;57757;53.198;19.646;2022-09-12T05:56:46;9.00;;;2.40;;
70337;SDS011;57757;53.198;19.646;2022-09-12T05:59:16;8.90;;;2.70;;
70337;SDS011;57757;53.198;19.646;2022-09-12T06:01:45;6.90;;;2.10;;
70337;SDS011;57757;53.198;19.646;2022-09-12T06:04:13;8.20;;;2.10;;
70337;SDS011;57757;53.198;19.646;2022-09-12T06:06:44;9.60;;;4.60;;
70337;SDS011;57757;53.198;19.646;2022-09-12T06:09:13;12.40;;;3.40;;
70337;SDS011;57757;53.198;19.646;2022-09-12T06:11:45;10.00;;;2.10;;
70337;SDS011;57757;53.198;19.646;2022-09-12T06:14:17;7.10;;;2.30;;
70337;SDS011;57757;53.198;19.646;2022-09-12T06:16:48;8.00;;;2.20;;
70337;SDS011;57757;53.198;19.646;2022-09-12T06:19:17;12.30;;;4.30;;
70337;SDS011;57757;53.198;19.646;2022-09-12T06:21:50;9.30;;;2.10;;
70337;SDS011;57757;53.198;19.646;2022-09-12T06:24:19;7.20;;;2.20;;
70337;SDS011;57757;53.198;19.646;2022-09-12T06:26:48;11.00;;;2.40;;
70337;SDS011;57757;53.198;19.646;2022-09-12T06:29:19;8.70;;;2.50;;
70337;SDS011;57757;53.198;19.646;2022-09-12T06:31:47;7.20;;;1.90;;
70337;SDS011;57757;53.198;19.646;2022-09-12T06:34:15;10.90;;;3.90;;
70337;SDS011;57757;53.198;19.646;2022-09-12T06:36:48;9.30;;;4.00;;
70337;SDS011;57757;53.198;19.646;2022-09-12T06:39:17;7.40;;;2.30;;
70337;SDS011;57757;53.198;19.646;2022-09-12T06:41:47;7.80;;;2.60;;
70337;SDS011;57757;53.198;19.646;2022-09-12T06:44:20;9.20;;;3.60;;
70337;SDS011;57757;53.198;19.646;2022-09-12T06:46:49;7.00;;;1.90;;
70337;SDS011;57757;53.198;19.646;2022-09-12T06:49:17;7.40;;;2.10;;
70337;SDS011;57757;53.198;19.646;2022-09-12T06:51:45;6.10;;;1.70;;
70337;SDS011;57757;53.198;19.646;2022-09-12T06:54:20;7.40;;;2.50;;
70337;SDS011;57757;53.198;19.646;2022-09-12T06:56:53;9.30;;;2.30;;
70337;SDS011;57757;53.198;19.646;2022-09-12T06:59:25;7.20;;;1.80;;
70337;SDS011;57757;53.198;19.646;2022-09-12T07:01:54;9.30;;;2.50;;
70337;SDS011;57757;53.198;19.646;2022-09-12T07:04:22;7.60;;;2.40;;
70337;SDS011;57757;53.198;19.646;2022-09-12T07:06:50;8.70;;;2.80;;
70337;SDS011;57757;53.198;19.646;2022-09-12T07:09:18;7.80;;;2.60;;
70337;SDS011;57757;53.198;19.646;2022-09-12T07:11:47;9.90;;;2.60;;
70337;SDS011;57757;53.198;19.646;2022-09-12T07:14:15;8.90;;;2.40;;
70337;SDS011;57757;53.198;19.646;2022-09-12T07:16:43;8.70;;;2.50;;
70337;SDS011;57757;53.198;19.646;2022-09-12T07:19:12;9.40;;;2.60;;
70337;SDS011;57757;53.198;19.646;2022-09-12T07:21:39;9.70;;;1.70;;
70337;SDS011;57757;53.198;19.646;2022-09-12T07:24:08;8.40;;;2.10;;
70337;SDS011;57757;53.198;19.646;2022-09-12T07:26:39;7.50;;;1.90;;
70337;SDS011;57757;53.198;19.646;2022-09-12T07:29:12;8.00;;;1.70;;
70337;SDS011;57757;53.198;19.646;2022-09-12T07:32:04;6.50;;;1.70;;
70337;SDS011;57757;53.198;19.646;2022-09-12T07:34:33;11.80;;;2.20;;
70337;SDS011;57757;53.198;19.646;2022-09-12T07:37:01;6.50;;;1.90;;
70337;SDS011;57757;53.198;19.646;2022-09-12T07:39:29;8.20;;;2.20;;
70337;SDS011;57757;53.198;19.646;2022-09-12T07:41:57;9.20;;;1.60;;
70337;SDS011;57757;53.198;19.646;2022-09-12T07:44:25;5.80;;;1.50;;
70337;SDS011;57757;53.198;19.646;2022-09-12T07:46:53;8.10;;;2.60;;
70337;SDS011;57757;53.198;19.646;2022-09-12T07:49:24;10.80;;;2.30;;
70337;SDS011;57757;53.198;19.646;2022-09-12T07:51:55;5.70;;;1.60;;
70337;SDS011;57757;53.198;19.646;2022-09-12T07:54:24;6.00;;;1.80;;
70337;SDS011;57757;53.198;19.646;2022-09-12T07:56:55;7.80;;;1.80;;
70337;SDS011;57757;53.198;19.646;2022-09-12T07:59:24;9.20;;;1.60;;
70337;SDS011;57757;53.198;19.646;2022-09-12T08:02:12;5.60;;;1.60;;
70337;SDS011;57757;53.198;19.646;2022-09-12T08:04:44;9.20;;;1.80;;
70337;SDS011;57757;53.198;19.646;2022-09-12T08:07:11;10.70;;;3.20;;
70337;SDS011;57757;53.198;19.646;2022-09-12T08:09:39;7.60;;;1.80;;
70337;SDS011;57757;53.198;19.646;2022-09-12T08:12:07;6.50;;;1.70;;
70337;SDS011;57757;53.198;19.646;2022-09-12T08:14:34;9.10;;;1.70;;
70337;SDS011;57757;53.198;19.646;2022-09-12T08:17:02;9.00;;;1.50;;
70337;SDS011;57757;53.198;19.646;2022-09-12T08:19:30;7.20;;;1.60;;
70337;SDS011;57757;53.198;19.646;2022-09-12T08:21:57;7.30;;;1.70;;
70337;SDS011;57757;53.198;19.646;2022-09-12T08:24:25;6.90;;;1.70;;
70337;SDS011;57757;53.198;19.646;2022-09-12T08:26:54;8.10;;;1.80;;
70337;SDS011;57757;53.198;19.646;2022-09-12T08:29:21;6.70;;;1.70;;
70337;SDS011;57757;53.198;19.646;2022-09-12T08:31:49;6.60;;;1.70;;
70337;SDS011;57757;53.198;19.646;2022-09-12T08:34:23;6.00;;;1.60;;
70337;SDS011;57757;53.198;19.646;2022-09-12T08:36:52;6.90;;;2.10;;
70337;SDS011;57757;53.198;19.646;2022-09-12T08:39:20;9.50;;;3.10;;
70337;SDS011;57757;53.198;19.646;2022-09-12T08:41:55;8.50;;;2.00;;
70337;SDS011;57757;53.198;19.646;2022-09-12T08:55:37;10.30;;;2.30;;
70337;SDS011;57757;53.198;19.646;2022-09-12T08:58:18;6.00;;;1.80;;
70337;SDS011;57757;53.198;19.646;2022-09-12T09:12:32;7.90;;;1.60;;
70337;SDS011;57757;53.198;19.646;2022-09-12T09:17:54;6.90;;;1.80;;
70337;SDS011;57757;53.198;19.646;2022-09-12T09:20:34;5.90;;;1.70;;
70337;SDS011;57757;53.198;19.646;2022-09-12T09:26:12;7.80;;;2.40;;
70337;SDS011;57757;53.198;19.646;2022-09-12T09:28:49;6.60;;;1.70;;
70337;SDS011;57757;53.198;19.646;2022-09-12T09:31:23;8.00;;;2.00;;
70337;SDS011;57757;53.198;19.646;2022-09-12T09:33:53;7.30;;;1.80;;
70337;SDS011;57757;53.198;19.646;2022-09-12T09:39:17;8.80;;;2.00;;
70337;SDS011;57757;53.198;19.646;2022-09-12T09:44:44;13.10;;;2.20;;
70337;SDS011;57757;53.198;19.646;2022-09-12T09:47:14;8.70;;;2.00;;
70337;SDS011;57757;53.198;19.646;2022-09-12T09:49:44;5.80;;;1.70;;
70337;SDS011;57757;53.198;19.646;2022-09-12T09:52:14;7.60;;;2.00;;
70337;SDS011;57757;53.198;19.646;2022-09-12T10:02:57;7.60;;;1.60;;
70337;SDS011;57757;53.198;19.646;2022-09-12T10:05:31;6.10;;;1.30;;
70337;SDS011;57757;53.198;19.646;2022-09-12T10:08:02;7.10;;;1.70;;
70337;SDS011;57757;53.198;19.646;2022-09-12T10:10:33;5.70;;;1.60;;
70337;SDS011;57757;53.198;19.646;2022-09-12T10:13:20;7.10;;;1.40;;
70337;SDS011;57757;53.198;19.646;2022-09-12T10:16:02;6.90;;;1.70;;
70337;SDS011;57757;53.198;19.646;2022-09-12T10:18:40;6.00;;;1.40;;
70337;SDS011;57757;53.198;19.646;2022-09-12T10:21:12;7.80;;;1.60;;
70337;SDS011;57757;53.198;19.646;2022-09-12T10:23:52;6.20;;;1.40;;
70337;SDS011;57757;53.198;19.646;2022-09-12T10:26:46;5.80;;;1.50;;
70337;SDS011;57757;53.198;19.646;2022-09-12T10:29:27;7.40;;;1.40;;
70337;SDS011;57757;53.198;19.646;2022-09-12T10:32:00;9.30;;;1.60;;
70337;SDS011;57757;53.198;19.646;2022-09-12T10:34:34;7.10;;;1.50;;
70337;SDS011;57757;53.198;19.646;2022-09-12T10:37:16;6.00;;;1.20;;
70337;SDS011;57757;53.198;19.646;2022-09-12T10:39:58;7.30;;;1.50;;
70337;SDS011;57757;53.198;19.646;2022-09-12T10:45:16;5.60;;;1.50;;
70337;SDS011;57757;53.198;19.646;2022-09-12T10:47:45;5.40;;;1.40;;
70337;SDS011;57757;53.198;19.646;2022-09-12T10:50:25;6.70;;;1.60;;
70337;SDS011;57757;53.198;19.646;2022-09-12T10:52:53;7.80;;;2.70;;
70337;SDS011;57757;53.198;19.646;2022-09-12T10:55:38;24.10;;;9.50;;
70337;SDS011;57757;53.198;19.646;2022-09-12T10:58:20;50.30;;;21.70;;
70337;SDS011;57757;53.198;19.646;2022-09-12T11:00:57;170.30;;;66.00;;
70337;SDS011;57757;53.198;19.646;2022-09-12T11:03:50;13.60;;;5.10;;
70337;SDS011;57757;53.198;19.646;2022-09-12T11:06:21;14.50;;;6.30;;
70337;SDS011;57757;53.198;19.646;2022-09-12T11:09:24;37.50;;;17.20;;
70337;SDS011;57757;53.198;19.646;2022-09-12T11:17:52;7.10;;;2.10;;
70337;SDS011;57757;53.198;19.646;2022-09-12T11:29:03;10.70;;;1.70;;
70337;SDS011;57757;53.198;19.646;2022-09-12T11:34:20;18.20;;;3.50;;
70337;SDS011;57757;53.198;19.646;2022-09-12T11:40:06;7.20;;;2.00;;
70337;SDS011;57757;53.198;19.646;2022-09-12T11:43:01;6.30;;;1.70;;
70337;SDS011;57757;53.198;19.646;2022-09-12T11:45:46;5.60;;;1.50;;
70337;SDS011;57757;53.198;19.646;2022-09-12T11:51:28;4.50;;;1.10;;
70337;SDS011;57757;53.198;19.646;2022-09-12T11:56:50;5.30;;;1.10;;
70337;SDS011;57757;53.198;19.646;2022-09-12T12:02:14;6.70;;;1.90;;
70337;SDS011;57757;53.198;19.646;2022-09-12T12:07:52;25.70;;;12.70;;
70337;SDS011;57757;53.198;19.646;2022-09-12T12:13:15;8.50;;;2.30;;
70337;SDS011;57757;53.198;19.646;2022-09-12T12:15:51;13.80;;;4.30;;
70337;SDS011;57757;53.198;19.646;2022-09-12T12:18:23;29.30;;;12.20;;
70337;SDS011;57757;53.198;19.646;2022-09-12T12:20:54;34.70;;;9.40;;
70337;SDS011;57757;53.198;19.646;2022-09-12T12:23:40;8.80;;;2.60;;
70337;SDS011;57757;53.198;19.646;2022-09-12T12:29:11;8.70;;;1.90;;
70337;SDS011;57757;53.198;19.646;2022-09-12T12:34:32;7.70;;;2.60;;
70337;SDS011;57757;53.198;19.646;2022-09-12T12:42:56;8.10;;;2.20;;
70337;SDS011;57757;53.198;19.646;2022-09-12T12:48:07;7.80;;;2.00;;
70337;SDS011;57757;53.198;19.646;2022-09-12T12:50:37;8.00;;;2.90;;
70337;SDS011;57757;53.198;19.646;2022-09-12T12:53:06;14.10;;;5.10;;
70337;SDS011;57757;53.198;19.646;2022-09-12T12:55:47;14.10;;;3.10;;
70337;SDS011;57757;53.198;19.646;2022-09-12T13:01:04;9.60;;;3.10;;
70337;SDS011;57757;53.198;19.646;2022-09-12T13:03:36;15.10;;;5.90;;
70337;SDS011;57757;53.198;19.646;2022-09-12T13:06:07;8.30;;;3.50;;
70337;SDS011;57757;53.198;19.646;2022-09-12T13:11:35;19.70;;;5.00;;
70337;SDS011;57757;53.198;19.646;2022-09-12T13:14:06;13.60;;;4.00;;
70337;SDS011;57757;53.198;19.646;2022-09-12T13:16:55;13.50;;;3.40;;
70337;SDS011;57757;53.198;19.646;2022-09-12T13:19:30;10.50;;;3.30;;
70337;SDS011;57757;53.198;19.646;2022-09-12T13:22:03;6.00;;;1.60;;
70337;SDS011;57757;53.198;19.646;2022-09-12T13:24:55;10.60;;;3.40;;
70337;SDS011;57757;53.198;19.646;2022-09-12T13:27:22;18.50;;;3.40;;
70337;SDS011;57757;53.198;19.646;2022-09-12T13:30:13;16.90;;;3.20;;
70337;SDS011;57757;53.198;19.646;2022-09-12T13:32:41;8.80;;;1.90;;
70337;SDS011;57757;53.198;19.646;2022-09-12T13:35:12;6.30;;;1.60;;
70337;SDS011;57757;53.198;19.646;2022-09-12T13:37:53;7.80;;;1.60;;
70337;SDS011;57757;53.198;19.646;2022-09-12T13:40:32;6.20;;;1.80;;
70337;SDS011;57757;53.198;19.646;2022-09-12T13:43:13;6.60;;;2.10;;
70337;SDS011;57757;53.198;19.646;2022-09-12T13:45:44;5.70;;;1.30;;
70337;SDS011;57757;53.198;19.646;2022-09-12T13:48:22;11.30;;;2.30;;
70337;SDS011;57757;53.198;19.646;2022-09-12T13:50:56;6.90;;;1.60;;
70337;SDS011;57757;53.198;19.646;2022-09-12T13:53:28;8.90;;;1.80;;
70337;SDS011;57757;53.198;19.646;2022-09-12T13:55:58;8.10;;;2.00;;
70337;SDS011;57757;53.198;19.646;2022-09-12T13:58:27;15.80;;;4.40;;
70337;SDS011;57757;53.198;19.646;2022-09-12T14:01:05;7.90;;;3.60;;
70337;SDS011;57757;53.198;19.646;2022-09-12T14:06:25;19.70;;;6.80;;
70337;SDS011;57757;53.198;19.646;2022-09-12T14:08:54;9.90;;;2.90;;
70337;SDS011;57757;53.198;19.646;2022-09-12T14:11:28;12.90;;;3.00;;
70337;SDS011;57757;53.198;19.646;2022-09-12T14:13:57;9.40;;;1.70;;
70337;SDS011;57757;53.198;19.646;2022-09-12T14:16:25;5.80;;;1.70;;
70337;SDS011;57757;53.198;19.646;2022-09-12T14:18:57;5.90;;;1.70;;
70337;SDS011;57757;53.198;19.646;2022-09-12T14:24:02;6.40;;;1.40;;
70337;SDS011;57757;53.198;19.646;2022-09-12T14:26:33;5.90;;;1.60;;
70337;SDS011;57757;53.198;19.646;2022-09-12T14:29:04;9.30;;;2.30;;
70337;SDS011;57757;53.198;19.646;2022-09-12T14:31:36;12.70;;;3.50;;
70337;SDS011;57757;53.198;19.646;2022-09-12T14:34:12;8.80;;;2.30;;
70337;SDS011;57757;53.198;19.646;2022-09-12T14:36:52;7.00;;;2.20;;
70337;SDS011;57757;53.198;19.646;2022-09-12T14:39:31;10.70;;;1.80;;
70337;SDS011;57757;53.198;19.646;2022-09-12T14:42:05;7.10;;;1.80;;
70337;SDS011;57757;53.198;19.646;2022-09-12T14:44:50;5.20;;;1.60;;
70337;SDS011;57757;53.198;19.646;2022-09-12T14:47:36;7.20;;;1.60;;
70337;SDS011;57757;53.198;19.646;2022-09-12T14:55:56;7.20;;;1.60;;
70337;SDS011;57757;53.198;19.646;2022-09-12T14:58:26;6.00;;;1.90;;
70337;SDS011;57757;53.198;19.646;2022-09-12T15:06:23;7.40;;;1.20;;
70337;SDS011;57757;53.198;19.646;2022-09-12T15:08:59;6.30;;;1.30;;
70337;SDS011;57757;53.198;19.646;2022-09-12T15:11:32;5.30;;;1.60;;
70337;SDS011;57757;53.198;19.646;2022-09-12T15:14:07;6.70;;;1.30;;
70337;SDS011;57757;53.198;19.646;2022-09-12T15:16:40;67.20;;;38.10;;
70337;SDS011;57757;53.198;19.646;2022-09-12T15:19:08;8.60;;;3.40;;
70337;SDS011;57757;53.198;19.646;2022-09-12T15:21:35;12.50;;;4.80;;
70337;SDS011;57757;53.198;19.646;2022-09-12T15:24:03;11.40;;;2.30;;
70337;SDS011;57757;53.198;19.646;2022-09-12T15:26:31;6.80;;;1.30;;
70337;SDS011;57757;53.198;19.646;2022-09-12T15:28:59;5.60;;;1.30;;
70337;SDS011;57757;53.198;19.646;2022-09-12T15:31:30;5.40;;;1.20;;
70337;SDS011;57757;53.198;19.646;2022-09-12T15:33:59;7.10;;;1.30;;
70337;SDS011;57757;53.198;19.646;2022-09-12T15:36:28;4.80;;;1.10;;
70337;SDS011;57757;53.198;19.646;2022-09-12T15:38:56;7.10;;;1.10;;
70337;SDS011;57757;53.198;19.646;2022-09-12T15:41:34;5.70;;;1.20;;
70337;SDS011;57757;53.198;19.646;2022-09-12T15:44:05;5.40;;;1.10;;
70337;SDS011;57757;53.198;19.646;2022-09-12T15:46:37;5.30;;;1.20;;
70337;SDS011;57757;53.198;19.646;2022-09-12T15:49:05;6.00;;;1.50;;
70337;SDS011;57757;53.198;19.646;2022-09-12T15:51:33;4.50;;;1.10;;
70337;SDS011;57757;53.198;19.646;2022-09-12T15:54:01;5.80;;;1.20;;
70337;SDS011;57757;53.198;19.646;2022-09-12T15:56:30;7.40;;;1.50;;
70337;SDS011;57757;53.198;19.646;2022-09-12T15:58:57;6.60;;;1.50;;
70337;SDS011;57757;53.198;19.646;2022-09-12T16:01:26;7.70;;;1.90;;
70337;SDS011;57757;53.198;19.646;2022-09-12T16:03:55;5.70;;;2.10;;
70337;SDS011;57757;53.198;19.646;2022-09-12T16:06:23;7.50;;;1.80;;
70337;SDS011;57757;53.198;19.646;2022-09-12T16:08:51;5.90;;;2.00;;
70337;SDS011;57757;53.198;19.646;2022-09-12T16:11:20;6.20;;;1.70;;
70337;SDS011;57757;53.198;19.646;2022-09-12T16:13:53;4.90;;;1.50;;
70337;SDS011;57757;53.198;19.646;2022-09-12T16:16:22;6.10;;;2.00;;
70337;SDS011;57757;53.198;19.646;2022-09-12T16:18:50;13.40;;;8.00;;
70337;SDS011;57757;53.198;19.646;2022-09-12T16:21:18;16.70;;;10.10;;
70337;SDS011;57757;53.198;19.646;2022-09-12T16:23:46;7.60;;;3.80;;
70337;SDS011;57757;53.198;19.646;2022-09-12T16:26:14;7.50;;;2.30;;
70337;SDS011;57757;53.198;19.646;2022-09-12T16:28:43;16.40;;;8.50;;
70337;SDS011;57757;53.198;19.646;2022-09-12T16:31:11;19.50;;;10.10;;
70337;SDS011;57757;53.198;19.646;2022-09-12T16:33:40;6.30;;;2.30;;
70337;SDS011;57757;53.198;19.646;2022-09-12T16:36:09;5.80;;;1.60;;
70337;SDS011;57757;53.198;19.646;2022-09-12T16:38:42;6.80;;;2.10;;
70337;SDS011;57757;53.198;19.646;2022-09-12T16:41:10;5.40;;;1.50;;
70337;SDS011;57757;53.198;19.646;2022-09-12T16:43:38;6.00;;;2.10;;
70337;SDS011;57757;53.198;19.646;2022-09-12T16:46:07;32.60;;;16.80;;
70337;SDS011;57757;53.198;19.646;2022-09-12T16:48:41;550.80;;;361.10;;
70337;SDS011;57757;53.198;19.646;2022-09-12T16:51:21;647.10;;;370.30;;
70337;SDS011;57757;53.198;19.646;2022-09-12T16:53:53;492.30;;;298.80;;
70337;SDS011;57757;53.198;19.646;2022-09-12T16:56:22;58.10;;;41.10;;
70337;SDS011;57757;53.198;19.646;2022-09-12T16:58:50;262.50;;;196.00;;
70337;SDS011;57757;53.198;19.646;2022-09-12T17:01:19;81.40;;;72.30;;
70337;SDS011;57757;53.198;19.646;2022-09-12T17:03:53;20.80;;;15.50;;
70337;SDS011;57757;53.198;19.646;2022-09-12T17:06:23;9.70;;;6.50;;
70337;SDS011;57757;53.198;19.646;2022-09-12T17:08:52;7.10;;;2.30;;
70337;SDS011;57757;53.198;19.646;2022-09-12T17:11:23;6.90;;;1.70;;
70337;SDS011;57757;53.198;19.646;2022-09-12T17:13:53;9.70;;;3.00;;
70337;SDS011;57757;53.198;19.646;2022-09-12T17:16:36;9.30;;;3.00;;
70337;SDS011;57757;53.198;19.646;2022-09-12T17:19:06;10.10;;;5.00;;
70337;SDS011;57757;53.198;19.646;2022-09-12T17:21:35;10.60;;;5.50;;
70337;SDS011;57757;53.198;19.646;2022-09-12T17:24:03;10.90;;;6.20;;
70337;SDS011;57757;53.198;19.646;2022-09-12T17:26:31;10.70;;;5.20;;
70337;SDS011;57757;53.198;19.646;2022-09-12T17:28:59;10.40;;;4.60;;
70337;SDS011;57757;53.198;19.646;2022-09-12T17:31:27;19.40;;;9.00;;
70337;SDS011;57757;53.198;19.646;2022-09-12T17:33:56;23.40;;;11.60;;
70337;SDS011;57757;53.198;19.646;2022-09-12T17:36:25;18.70;;;10.40;;
70337;SDS011;57757;53.198;19.646;2022-09-12T17:38:54;19.50;;;9.40;;
70337;SDS011;57757;53.198;19.646;2022-09-12T17:41:23;10.80;;;5.60;;
70337;SDS011;57757;53.198;19.646;2022-09-12T17:43:55;9.70;;;3.60;;